Time,TemperatureF,DewpointF,PressureIn,WindDirection,WindDirectionDegrees,WindSpeedMPH,WindSpeedGustMPH,Humidity,HourlyPrecipIn,Conditions,Clouds,dailyrainin,SoftwareType,DateUTC
2013-06-06 00:00:00,53.1,33.4,29.85,SE,134,2.2,5.8,47,0.00,,OVC042,0.00,VWS V14.01,2013-06-06 05:00:00,
2013-06-06 00:05:00,53.1,33.4,29.85,ESE,110,2.7,4.0,47,0.00,,OVC040,0.00,VWS V14.01,2013-06-06 05:05:00,
2013-06-06 00:10:00,52.9,33.2,29.85,ESE,117,0.0,4.9,47,0.00,,OVC040,0.00,VWS V14.01,2013-06-06 05:10:00,
2013-06-06 00:15:00,52.9,33.2,29.85,ESE,122,0.0,3.6,47,0.00,,OVC040,0.00,VWS V14.01,2013-06-06 05:15:00,
2013-06-06 00:21:00,52.9,33.7,29.85,East,92,3.6,4.0,48,0.00,,OVC040,0.00,VWS V14.01,2013-06-06 05:21:00,
2013-06-06 00:26:00,52.9,33.7,29.85,East,97,2.7,5.4,48,0.00,,OVC040,0.00,VWS V14.01,2013-06-06 05:26:00,
2013-06-06 00:31:00,52.9,33.7,29.85,East,87,0.0,3.1,48,0.00,,OVC040,0.00,VWS V14.01,2013-06-06 05:31:00,
2013-06-06 00:37:00,52.9,33.7,29.85,ESE,104,4.0,4.0,48,0.00,,OVC040,0.00,VWS V14.01,2013-06-06 05:37:00,
2013-06-06 00:43:00,53.1,33.9,29.85,ESE,109,4.0,4.0,48,0.00,,OVC040,0.00,VWS V14.01,2013-06-06 05:43:00,
2013-06-06 00:48:00,53.1,33.9,29.82,SE,142,3.6,4.0,48,0.00,,OVC040,0.00,VWS V14.01,2013-06-06 05:48:00,
2013-06-06 00:54:00,53.1,33.9,29.82,ESE,112,2.7,2.7,48,0.00,,OVC040,0.00,VWS V14.01,2013-06-06 05:54:00,
2013-06-06 00:59:00,53.1,33.9,29.82,East,101,4.0,4.9,48,0.00,,OVC040,0.00,VWS V14.01,2013-06-06 05:59:00,
2013-06-06 01:04:00,53.2,34.1,29.82,ESE,106,4.0,5.4,48,0.00,,OVC060,0.00,VWS V14.01,2013-06-06 06:04:00,
2013-06-06 01:09:00,53.2,34.1,29.82,ESE,123,4.0,4.0,48,0.00,,OVC060,0.00,VWS V14.01,2013-06-06 06:09:00,
2013-06-06 01:15:00,53.2,33.5,29.82,East,100,0.0,0.0,47,0.00,,OVC060,0.00,VWS V14.01,2013-06-06 06:15:00,
2013-06-06 01:20:00,53.2,33.5,29.82,East,100,0.0,0.0,47,0.00,,OVC060,0.00,VWS V14.01,2013-06-06 06:20:00,
2013-06-06 01:25:00,53.2,33.5,29.82,East,98,0.0,2.2,47,0.00,,OVC060,0.00,VWS V14.01,2013-06-06 06:25:00,
2013-06-06 01:32:00,53.2,33.5,29.82,East,99,0.0,3.6,47,0.00,,OVC060,0.00,VWS V14.01,2013-06-06 06:32:00,
2013-06-06 01:37:00,53.2,33.5,29.82,ESE,102,0.0,0.0,47,0.00,,OVC060,0.00,VWS V14.01,2013-06-06 06:37:00,
2013-06-06 01:42:00,53.2,33.5,29.82,East,96,2.2,2.7,47,0.00,,OVC060,0.00,VWS V14.01,2013-06-06 06:42:00,
2013-06-06 01:47:00,53.2,33.5,29.82,ENE,59,0.0,0.0,47,0.00,,OVC060,0.00,VWS V14.01,2013-06-06 06:47:00,
2013-06-06 01:53:00,53.2,33.5,29.82,NE,35,0.0,0.0,47,0.00,,OVC060,0.00,VWS V14.01,2013-06-06 06:53:00,
2013-06-06 01:59:00,53.2,33.5,29.82,North,353,4.0,5.8,47,0.00,,OVC060,0.00,VWS V14.01,2013-06-06 06:59:00,
2013-06-06 02:04:00,53.1,33.4,29.82,NNW,344,0.0,0.0,47,0.00,,OVC065,0.00,VWS V14.01,2013-06-06 07:04:00,
2013-06-06 02:10:00,53.1,33.9,29.82,North,7,0.0,0.0,48,0.00,,OVC065,0.00,VWS V14.01,2013-06-06 07:10:00,
2013-06-06 02:15:00,52.9,33.7,29.82,North,353,0.0,0.0,48,0.05,,OVC065,0.05,VWS V14.01,2013-06-06 07:15:00,
2013-06-06 02:20:00,52.3,33.2,29.82,North,353,0.0,0.0,48,0.05,,OVC065,0.05,VWS V14.01,2013-06-06 07:20:00,
2013-06-06 02:25:00,51.8,33.3,29.82,NW,325,3.6,4.0,49,0.05,,OVC065,0.05,VWS V14.01,2013-06-06 07:25:00,
2013-06-06 02:30:00,51.4,33.4,29.85,NNW,341,3.6,3.6,50,0.05,,OVC065,0.05,VWS V14.01,2013-06-06 07:30:00,
2013-06-06 02:37:00,51.3,33.8,29.85,North,5,0.0,0.0,51,0.05,,OVC065,0.05,VWS V14.01,2013-06-06 07:37:00,
2013-06-06 02:42:00,51.3,34.7,29.85,NNE,14,0.0,0.0,53,0.05,,OVC065,0.05,VWS V14.01,2013-06-06 07:42:00,
2013-06-06 02:47:00,51.3,36.1,29.82,NNE,15,4.0,4.9,56,0.05,,OVC065,0.05,VWS V14.01,2013-06-06 07:47:00,
2013-06-06 02:53:00,51.3,37.4,29.82,North,357,3.6,5.4,59,0.05,,OVC065,0.05,VWS V14.01,2013-06-06 07:53:00,
2013-06-06 02:59:00,51.3,37.9,29.82,North,357,0.0,0.0,60,0.05,,OVC065,0.05,VWS V14.01,2013-06-06 07:59:00,
2013-06-06 03:04:00,51.3,38.3,29.82,North,11,0.0,0.0,61,0.05,,OVC046,0.05,VWS V14.01,2013-06-06 08:04:00,
2013-06-06 03:09:00,51.3,39.1,29.82,NNE,16,4.0,4.9,63,0.05,,OVC046,0.05,VWS V14.01,2013-06-06 08:09:00,
2013-06-06 03:14:00,51.3,39.5,29.82,North,6,0.0,0.0,64,0.05,,OVC046,0.05,VWS V14.01,2013-06-06 08:14:00,
2013-06-06 03:19:00,51.3,39.9,29.82,North,6,0.0,0.0,65,0.00,,OVC046,0.05,VWS V14.01,2013-06-06 08:19:00,
2013-06-06 03:24:00,51.3,40.3,29.82,North,2,0.0,0.0,66,0.00,,OVC046,0.05,VWS V14.01,2013-06-06 08:24:00,
2013-06-06 03:30:00,51.3,40.7,29.82,NNE,25,0.0,0.0,67,0.00,,OVC046,0.05,VWS V14.01,2013-06-06 08:30:00,
2013-06-06 03:35:00,51.3,41.1,29.82,North,4,0.0,3.6,68,0.00,,OVC046,0.05,VWS V14.01,2013-06-06 08:35:00,
2013-06-06 03:40:00,51.4,41.2,29.82,NNE,23,0.0,2.2,68,0.00,,OVC046,0.05,VWS V14.01,2013-06-06 08:40:00,
2013-06-06 03:45:00,51.4,41.6,29.82,North,10,4.0,4.9,69,0.00,,OVC046,0.05,VWS V14.01,2013-06-06 08:45:00,
2013-06-06 03:50:00,51.4,42.0,29.82,NNE,17,4.9,5.8,70,0.00,,OVC046,0.05,VWS V14.01,2013-06-06 08:50:00,
2013-06-06 03:56:00,51.4,42.7,29.82,NNE,16,6.3,6.3,72,0.00,,OVC046,0.05,VWS V14.01,2013-06-06 08:56:00,
2013-06-06 04:02:00,51.6,42.9,29.82,North,9,0.0,0.0,72,0.00,,OVC048,0.05,VWS V14.01,2013-06-06 09:02:00,
2013-06-06 04:07:00,51.6,43.3,29.82,North,8,2.7,4.0,73,0.00,,OVC048,0.05,VWS V14.01,2013-06-06 09:07:00,
2013-06-06 04:12:00,51.6,43.3,29.82,NNE,20,2.7,3.1,73,0.00,,OVC048,0.05,VWS V14.01,2013-06-06 09:12:00,
2013-06-06 04:17:00,51.6,43.3,29.82,North,11,0.0,3.6,73,0.00,,OVC048,0.05,VWS V14.01,2013-06-06 09:17:00,
2013-06-06 04:23:00,51.6,43.6,29.82,NNE,18,0.0,0.0,74,0.00,,OVC048,0.05,VWS V14.01,2013-06-06 09:23:00,
2013-06-06 04:28:00,51.6,43.6,29.82,NNE,14,0.0,2.2,74,0.00,,OVC048,0.05,VWS V14.01,2013-06-06 09:28:00,
2013-06-06 04:33:00,51.8,43.8,29.82,North,7,3.6,3.6,74,0.00,,OVC048,0.05,VWS V14.01,2013-06-06 09:33:00,
2013-06-06 04:38:00,51.8,43.8,29.82,NNE,22,0.0,2.2,74,0.00,,OVC048,0.05,VWS V14.01,2013-06-06 09:38:00,
2013-06-06 04:43:00,51.8,43.8,29.82,NNE,18,0.0,0.0,74,0.00,,OVC048,0.05,VWS V14.01,2013-06-06 09:43:00,
2013-06-06 04:48:00,51.8,44.1,29.82,NNE,22,0.0,0.0,75,0.00,,OVC048,0.05,VWS V14.01,2013-06-06 09:48:00,
2013-06-06 04:54:00,51.8,44.1,29.82,NNE,21,0.0,0.0,75,0.00,,OVC048,0.05,VWS V14.01,2013-06-06 09:54:00,
2013-06-06 04:59:00,51.8,44.1,29.82,North,11,0.0,0.0,75,0.00,,OVC048,0.05,VWS V14.01,2013-06-06 09:59:00,
2013-06-06 05:05:00,51.8,44.1,29.82,North,10,0.0,0.0,75,0.00,,-RA,0.05,VWS V14.01,2013-06-06 10:05:00,
2013-06-06 05:10:00,51.8,44.1,29.82,North,9,0.0,0.0,75,0.00,,-RA,0.05,VWS V14.01,2013-06-06 10:10:00,
2013-06-06 05:16:00,51.8,44.1,29.82,North,9,0.0,0.0,75,0.00,,-RA,0.05,VWS V14.01,2013-06-06 10:16:00,
2013-06-06 05:22:00,51.8,44.5,29.82,North,9,0.0,0.0,76,0.05,,-RA,0.11,VWS V14.01,2013-06-06 10:22:00,
2013-06-06 05:27:00,52.0,44.7,29.82,North,9,0.0,0.0,76,0.05,,-RA,0.11,VWS V14.01,2013-06-06 10:27:00,
2013-06-06 05:32:00,51.8,44.5,29.82,North,9,0.0,0.0,76,0.05,,-RA,0.11,VWS V14.01,2013-06-06 10:32:00,
2013-06-06 05:37:00,51.8,44.5,29.82,North,9,0.0,0.0,76,0.05,,-RA,0.11,VWS V14.01,2013-06-06 10:37:00,
2013-06-06 05:43:00,51.8,44.5,29.82,ENE,73,0.0,0.0,76,0.05,,-RA,0.11,VWS V14.01,2013-06-06 10:43:00,
2013-06-06 05:48:00,51.8,44.8,29.82,ESE,113,4.0,4.9,77,0.11,,-RA,0.16,VWS V14.01,2013-06-06 10:48:00,
2013-06-06 05:54:00,51.8,44.8,29.82,East,89,0.0,0.0,77,0.11,,-RA,0.16,VWS V14.01,2013-06-06 10:54:00,
2013-06-06 05:59:00,51.6,44.7,29.82,NNE,13,0.0,0.0,77,0.16,,-RA,0.22,VWS V14.01,2013-06-06 10:59:00,
2013-06-06 06:04:00,51.6,44.7,29.82,North,8,0.0,0.0,77,0.16,,OVC046,0.22,VWS V14.01,2013-06-06 11:04:00,
2013-06-06 06:09:00,51.4,44.5,29.82,North,5,0.0,0.0,77,0.16,,OVC046,0.22,VWS V14.01,2013-06-06 11:09:00,
2013-06-06 06:15:00,51.3,44.3,29.82,ENE,58,0.0,0.0,77,0.22,,OVC046,0.27,VWS V14.01,2013-06-06 11:15:00,
2013-06-06 06:20:00,51.1,44.5,29.82,East,83,0.0,0.0,78,0.16,,OVC046,0.27,VWS V14.01,2013-06-06 11:20:00,
2013-06-06 06:25:00,51.1,44.5,29.82,NNE,30,0.0,0.0,78,0.16,,OVC046,0.27,VWS V14.01,2013-06-06 11:25:00,
2013-06-06 06:30:00,51.1,44.5,29.82,East,85,0.0,0.0,78,0.16,,OVC046,0.27,VWS V14.01,2013-06-06 11:30:00,
2013-06-06 06:35:00,51.1,44.5,29.82,ENE,58,0.0,0.0,78,0.16,,OVC046,0.27,VWS V14.01,2013-06-06 11:35:00,
2013-06-06 06:41:00,51.1,44.5,29.82,NE,54,0.0,0.0,78,0.16,,OVC046,0.27,VWS V14.01,2013-06-06 11:41:00,
2013-06-06 06:46:00,50.9,44.3,29.82,ENE,76,0.0,5.8,78,0.16,,OVC046,0.27,VWS V14.01,2013-06-06 11:46:00,
2013-06-06 06:51:00,50.9,44.6,29.82,NNE,16,0.0,0.0,79,0.11,,OVC046,0.27,VWS V14.01,2013-06-06 11:51:00,
2013-06-06 06:57:00,50.9,44.6,29.82,North,1,0.0,0.0,79,0.11,,OVC046,0.27,VWS V14.01,2013-06-06 11:57:00,
2013-06-06 07:02:00,50.9,44.6,29.82,NE,44,0.0,0.0,79,0.05,,OVC046,0.27,VWS V14.01,2013-06-06 12:02:00,
2013-06-06 07:07:00,51.1,44.8,29.82,NNE,32,0.0,0.0,79,0.05,,OVC046,0.27,VWS V14.01,2013-06-06 12:07:00,
2013-06-06 07:12:00,51.1,44.8,29.82,North,11,0.0,0.0,79,0.00,,OVC046,0.27,VWS V14.01,2013-06-06 12:12:00,
2013-06-06 07:18:00,51.1,45.1,29.82,North,11,0.0,0.0,80,0.00,,OVC046,0.27,VWS V14.01,2013-06-06 12:18:00,
2013-06-06 07:23:00,51.3,45.3,29.82,ENE,75,0.0,0.0,80,0.11,,OVC046,0.38,VWS V14.01,2013-06-06 12:23:00,
2013-06-06 07:29:00,51.3,45.3,29.82,ENE,68,0.0,0.0,80,0.11,,OVC046,0.38,VWS V14.01,2013-06-06 12:29:00,
2013-06-06 07:34:00,51.3,45.3,29.82,ENE,70,0.0,0.0,80,0.11,,OVC046,0.38,VWS V14.01,2013-06-06 12:34:00,
2013-06-06 07:40:00,51.3,45.3,29.82,NNE,16,0.0,0.0,80,0.11,,OVC046,0.38,VWS V14.01,2013-06-06 12:40:00,
2013-06-06 07:46:00,51.3,45.3,29.82,North,9,0.0,0.0,80,0.11,,OVC046,0.38,VWS V14.01,2013-06-06 12:46:00,
2013-06-06 07:51:00,51.3,45.3,29.82,NNE,23,0.0,0.0,80,0.11,,OVC046,0.38,VWS V14.01,2013-06-06 12:51:00,
2013-06-06 07:57:00,51.1,45.1,29.82,NNE,24,0.0,0.0,80,0.11,,OVC046,0.38,VWS V14.01,2013-06-06 12:57:00,
2013-06-06 08:02:00,51.1,45.5,29.82,NNE,23,0.0,0.0,81,0.11,,OVC046,0.38,VWS V14.01,2013-06-06 13:02:00,
2013-06-06 08:07:00,51.3,45.6,29.82,NNE,22,0.0,0.0,81,0.11,,OVC046,0.38,VWS V14.01,2013-06-06 13:07:00,
2013-06-06 08:12:00,51.3,45.6,29.82,NNE,12,0.0,0.0,81,0.11,,OVC046,0.38,VWS V14.01,2013-06-06 13:12:00,
2013-06-06 08:18:00,51.4,45.8,29.82,NNE,20,0.0,0.0,81,0.11,,OVC046,0.38,VWS V14.01,2013-06-06 13:18:00,
2013-06-06 08:23:00,51.4,46.1,29.82,ENE,63,0.0,3.6,82,0.00,,OVC046,0.38,VWS V14.01,2013-06-06 13:23:00,
2013-06-06 08:28:00,51.4,46.1,29.82,NE,45,0.0,0.0,82,0.05,,OVC046,0.43,VWS V14.01,2013-06-06 13:28:00,
2013-06-06 08:33:00,51.6,46.3,29.85,North,357,0.0,2.7,82,0.05,,OVC046,0.43,VWS V14.01,2013-06-06 13:33:00,
2013-06-06 08:38:00,51.6,46.3,29.85,North,8,2.2,4.0,82,0.05,,OVC046,0.43,VWS V14.01,2013-06-06 13:38:00,
2013-06-06 08:43:00,51.6,46.3,29.85,North,2,0.0,3.1,82,0.05,,OVC046,0.43,VWS V14.01,2013-06-06 13:43:00,
2013-06-06 08:49:00,51.6,46.3,29.85,NNE,20,0.0,0.0,82,0.05,,OVC046,0.43,VWS V14.01,2013-06-06 13:49:00,
2013-06-06 08:54:00,51.6,46.6,29.85,NNE,22,2.7,4.9,83,0.05,,OVC046,0.43,VWS V14.01,2013-06-06 13:54:00,
2013-06-06 09:00:00,51.8,46.8,29.85,North,11,0.0,0.0,83,0.05,,OVC046,0.43,VWS V14.01,2013-06-06 14:00:00,
2013-06-06 09:05:00,51.8,46.8,29.85,North,10,2.7,4.0,83,0.05,,-RA,0.43,VWS V14.01,2013-06-06 14:05:00,
2013-06-06 09:11:00,51.8,46.8,29.85,NNE,30,0.0,0.0,83,0.05,,-RA,0.43,VWS V14.01,2013-06-06 14:11:00,
2013-06-06 09:17:00,52.0,47.0,29.85,NNE,19,0.0,0.0,83,0.05,,-RA,0.43,VWS V14.01,2013-06-06 14:17:00,
2013-06-06 09:22:00,52.0,47.0,29.85,NNE,32,0.0,0.0,83,0.05,,-RA,0.43,VWS V14.01,2013-06-06 14:22:00,
2013-06-06 09:28:00,52.2,47.2,29.85,ENE,57,0.0,3.6,83,0.05,,-RA,0.43,VWS V14.01,2013-06-06 14:28:00,
2013-06-06 09:33:00,52.2,47.2,29.85,NNE,33,0.0,0.0,83,0.00,,-RA,0.43,VWS V14.01,2013-06-06 14:33:00,
2013-06-06 09:39:00,52.2,47.5,29.85,North,9,2.7,5.4,84,0.00,,-RA,0.43,VWS V14.01,2013-06-06 14:39:00,
2013-06-06 09:45:00,52.3,47.7,29.85,NE,43,0.0,5.4,84,0.00,,-RA,0.43,VWS V14.01,2013-06-06 14:45:00,
2013-06-06 09:50:00,52.3,48.0,29.85,ENE,60,0.0,4.9,85,0.00,,-RA,0.43,VWS V14.01,2013-06-06 14:50:00,
2013-06-06 09:57:00,52.5,48.2,29.85,NNE,22,0.0,0.0,85,0.00,,-RA,0.43,VWS V14.01,2013-06-06 14:57:00,
2013-06-06 10:03:00,52.7,48.3,29.85,ESE,114,0.0,0.0,85,0.00,,OVC044,0.43,VWS V14.01,2013-06-06 15:03:00,
2013-06-06 10:08:00,52.7,48.3,29.85,NNE,26,3.1,5.8,85,0.00,,OVC044,0.43,VWS V14.01,2013-06-06 15:08:00,
2013-06-06 10:14:00,52.7,48.3,29.85,NNE,15,0.0,4.0,85,0.00,,OVC044,0.43,VWS V14.01,2013-06-06 15:14:00,
2013-06-06 10:19:00,52.7,48.3,29.82,ENE,78,0.0,0.0,85,0.00,,OVC044,0.43,VWS V14.01,2013-06-06 15:19:00,
2013-06-06 10:24:00,52.7,48.6,29.82,NNE,18,3.1,5.8,86,0.00,,OVC044,0.43,VWS V14.01,2013-06-06 15:24:00,
2013-06-06 10:30:00,52.9,48.8,29.82,SE,128,4.0,4.0,86,0.00,,OVC044,0.43,VWS V14.01,2013-06-06 15:30:00,
2013-06-06 10:35:00,52.9,48.8,29.82,ENE,57,4.0,4.0,86,0.00,,OVC044,0.43,VWS V14.01,2013-06-06 15:35:00,
2013-06-06 10:42:00,53.1,49.3,29.82,NNE,26,0.0,2.7,87,0.00,,OVC044,0.43,VWS V14.01,2013-06-06 15:42:00,
2013-06-06 10:48:00,53.1,49.3,29.85,NNE,29,0.0,0.0,87,0.00,,OVC044,0.43,VWS V14.01,2013-06-06 15:48:00,
2013-06-06 10:53:00,53.1,49.3,29.85,North,11,0.0,0.0,87,0.00,,OVC044,0.43,VWS V14.01,2013-06-06 15:53:00,
2013-06-06 10:58:00,53.1,49.3,29.85,NNE,21,0.0,0.0,87,0.00,,OVC044,0.43,VWS V14.01,2013-06-06 15:58:00,
2013-06-06 11:03:00,53.2,49.5,29.85,SSW,204,0.0,4.5,87,0.00,,,0.43,VWS V14.01,2013-06-06 16:03:00,
2013-06-06 11:09:00,53.2,49.8,29.85,NNE,30,3.6,6.3,88,0.00,,,0.43,VWS V14.01,2013-06-06 16:09:00,
2013-06-06 11:14:00,53.4,50.0,29.85,ESE,112,3.1,4.9,88,0.00,,,0.43,VWS V14.01,2013-06-06 16:14:00,
2013-06-06 11:20:00,53.6,50.1,29.85,NE,48,3.6,4.9,88,0.00,,,0.43,VWS V14.01,2013-06-06 16:20:00,
2013-06-06 11:26:00,53.8,50.3,29.85,East,82,0.0,0.0,88,0.00,,,0.43,VWS V14.01,2013-06-06 16:26:00,
2013-06-06 11:32:00,54.3,50.8,29.85,NE,38,2.7,5.4,88,0.00,,,0.43,VWS V14.01,2013-06-06 16:32:00,
2013-06-06 11:38:00,54.5,51.0,29.85,East,87,4.0,6.3,88,0.00,,,0.43,VWS V14.01,2013-06-06 16:38:00,
2013-06-06 11:44:00,54.9,51.4,29.85,East,95,0.0,3.6,88,0.00,,,0.43,VWS V14.01,2013-06-06 16:44:00,
2013-06-06 11:49:00,55.0,51.6,29.85,East,81,3.6,6.3,88,0.00,,,0.43,VWS V14.01,2013-06-06 16:49:00,
2013-06-06 11:55:00,55.4,51.9,29.85,East,100,0.0,0.0,88,0.00,,,0.43,VWS V14.01,2013-06-06 16:55:00,
2013-06-06 12:00:00,55.8,52.3,29.85,East,90,0.0,0.0,88,0.00,,,0.43,VWS V14.01,2013-06-06 17:00:00,
2013-06-06 12:06:00,55.9,52.4,29.85,ESE,121,5.4,8.7,88,0.00,,OVC050,0.43,VWS V14.01,2013-06-06 17:06:00,
2013-06-06 12:12:00,56.1,52.6,29.85,ESE,115,3.1,10.1,88,0.00,,OVC050,0.43,VWS V14.01,2013-06-06 17:12:00,
2013-06-06 12:17:00,56.5,53.0,29.85,ENE,70,3.6,3.6,88,0.00,,OVC050,0.43,VWS V14.01,2013-06-06 17:17:00,
2013-06-06 12:22:00,56.7,53.2,29.85,NNE,19,2.2,5.4,88,0.00,,OVC050,0.43,VWS V14.01,2013-06-06 17:22:00,
2013-06-06 12:27:00,57.2,53.7,29.85,SSE,156,2.7,6.3,88,0.00,,OVC050,0.43,VWS V14.01,2013-06-06 17:27:00,
2013-06-06 12:32:00,57.6,54.0,29.85,East,95,6.3,6.3,88,0.00,,OVC050,0.43,VWS V14.01,2013-06-06 17:32:00,
2013-06-06 12:37:00,58.1,54.3,29.85,ENE,70,3.1,3.6,87,0.00,,OVC050,0.43,VWS V14.01,2013-06-06 17:37:00,
2013-06-06 12:43:00,57.9,53.4,29.85,East,88,2.7,3.1,85,0.00,,OVC050,0.43,VWS V14.01,2013-06-06 17:43:00,
2013-06-06 12:48:00,57.9,53.1,29.85,East,81,0.0,2.7,84,0.00,,OVC050,0.43,VWS V14.01,2013-06-06 17:48:00,
2013-06-06 12:54:00,57.9,52.8,29.85,East,90,0.0,3.6,83,0.00,,OVC050,0.43,VWS V14.01,2013-06-06 17:54:00,
2013-06-06 12:59:00,57.9,52.5,29.85,East,86,2.7,3.6,82,0.00,,OVC050,0.43,VWS V14.01,2013-06-06 17:59:00,
2013-06-06 13:04:00,58.3,52.5,29.82,ENE,64,0.0,0.0,81,0.00,,OVC050,0.43,VWS V14.01,2013-06-06 18:04:00,
2013-06-06 13:09:00,58.5,52.3,29.82,ENE,77,0.0,0.0,80,0.00,,OVC050,0.43,VWS V14.01,2013-06-06 18:09:00,
2013-06-06 13:15:00,58.5,51.6,29.82,SE,126,2.7,2.7,78,0.00,,OVC050,0.43,VWS V14.01,2013-06-06 18:15:00,
2013-06-06 13:20:00,58.5,50.9,29.82,NE,49,3.1,4.9,76,0.00,,OVC050,0.43,VWS V14.01,2013-06-06 18:20:00,
2013-06-06 13:27:00,58.6,50.4,29.82,NNE,23,4.9,5.4,74,0.00,,OVC050,0.43,VWS V14.01,2013-06-06 18:27:00,
2013-06-06 13:32:00,58.6,50.0,29.82,ENE,70,2.7,2.7,73,0.00,,OVC050,0.43,VWS V14.01,2013-06-06 18:32:00,
2013-06-06 13:37:00,58.8,49.5,29.82,NE,34,0.0,3.1,71,0.00,,OVC050,0.43,VWS V14.01,2013-06-06 18:37:00,
2013-06-06 13:42:00,58.8,48.3,29.82,NNE,16,3.1,5.8,68,0.00,,OVC050,0.43,VWS V14.01,2013-06-06 18:42:00,
2013-06-06 13:47:00,58.8,46.7,29.82,NE,48,2.7,4.0,64,0.00,,OVC050,0.43,VWS V14.01,2013-06-06 18:47:00,
2013-06-06 13:52:00,59.0,46.4,29.82,North,4,0.0,0.0,63,0.00,,OVC050,0.43,VWS V14.01,2013-06-06 18:52:00,
2013-06-06 13:58:00,58.8,44.5,29.82,North,2,5.8,5.8,59,0.00,,OVC050,0.43,VWS V14.01,2013-06-06 18:58:00,
2013-06-06 14:04:00,58.6,43.5,29.82,North,9,4.0,7.2,57,0.00,,OVC026,0.43,VWS V14.01,2013-06-06 19:04:00,
2013-06-06 14:09:00,58.5,42.8,29.82,North,357,0.0,4.0,56,0.00,,OVC026,0.43,VWS V14.01,2013-06-06 19:09:00,
2013-06-06 14:15:00,58.5,42.8,29.82,South,171,0.0,3.1,56,0.00,,OVC026,0.43,VWS V14.01,2013-06-06 19:15:00,
2013-06-06 14:20:00,58.6,43.0,29.82,North,0,3.6,3.6,56,0.00,,OVC026,0.43,VWS V14.01,2013-06-06 19:20:00,
2013-06-06 14:27:00,58.6,42.5,29.82,NNE,13,5.8,5.8,55,0.00,,OVC026,0.43,VWS V14.01,2013-06-06 19:27:00,
2013-06-06 14:32:00,58.6,42.1,29.82,ENE,72,0.0,0.0,54,0.00,,OVC026,0.43,VWS V14.01,2013-06-06 19:32:00,
2013-06-06 14:34:00,58.6,42.1,29.82,NE,36,5.8,5.8,54,0.00,,OVC026,0.43,VWS V14.01,2013-06-06 19:34:00,
2013-06-06 14:40:00,58.5,41.4,29.82,NNE,24,5.4,8.1,53,0.00,,OVC026,0.43,VWS V14.01,2013-06-06 19:40:00,
2013-06-06 14:45:00,58.3,41.7,29.82,NNE,23,4.9,4.9,54,0.00,,OVC026,0.43,VWS V14.01,2013-06-06 19:45:00,
2013-06-06 14:50:00,58.3,41.7,29.82,North,7,3.1,3.6,54,0.00,,OVC026,0.43,VWS V14.01,2013-06-06 19:50:00,
2013-06-06 14:56:00,58.3,41.7,29.82,NNE,27,2.2,3.6,54,0.00,,OVC026,0.43,VWS V14.01,2013-06-06 19:56:00,
2013-06-06 15:01:00,58.3,42.2,29.82,NNE,24,0.0,0.0,55,0.00,,BKN050,0.43,VWS V14.01,2013-06-06 20:01:00,
2013-06-06 15:07:00,58.3,42.2,29.82,NNE,13,0.0,0.0,55,0.00,,BKN050,0.43,VWS V14.01,2013-06-06 20:07:00,
2013-06-06 15:12:00,58.3,42.2,29.82,NNE,24,3.6,5.4,55,0.00,,BKN050,0.43,VWS V14.01,2013-06-06 20:12:00,
2013-06-06 15:17:00,58.1,41.1,29.82,ENE,59,5.4,8.7,53,0.00,,BKN050,0.43,VWS V14.01,2013-06-06 20:17:00,
2013-06-06 15:22:00,57.9,41.4,29.82,NNE,18,5.4,6.3,54,0.00,,BKN050,0.43,VWS V14.01,2013-06-06 20:22:00,
2013-06-06 15:28:00,57.6,40.6,29.82,North,5,4.0,4.9,53,0.00,,BKN050,0.43,VWS V14.01,2013-06-06 20:28:00,
2013-06-06 15:33:00,57.4,40.9,29.82,NNE,24,6.7,7.6,54,0.00,,BKN050,0.43,VWS V14.01,2013-06-06 20:33:00,
2013-06-06 15:38:00,57.4,41.4,29.82,North,7,3.6,8.3,55,0.00,,BKN050,0.43,VWS V14.01,2013-06-06 20:38:00,
2013-06-06 15:43:00,57.6,42.0,29.82,NNE,31,5.8,7.2,56,0.00,,BKN050,0.43,VWS V14.01,2013-06-06 20:43:00,
2013-06-06 15:48:00,57.7,41.7,29.82,NNE,23,3.6,7.6,55,0.00,,BKN050,0.43,VWS V14.01,2013-06-06 20:48:00,
2013-06-06 15:53:00,58.1,42.5,29.82,North,357,0.0,3.1,56,0.00,,BKN050,0.43,VWS V14.01,2013-06-06 20:53:00,
2013-06-06 15:58:00,58.5,42.8,29.82,NE,36,5.8,7.6,56,0.00,,BKN050,0.43,VWS V14.01,2013-06-06 20:58:00,
2013-06-06 16:04:00,58.8,42.2,29.82,NNE,23,3.6,6.7,54,0.00,,OVC065,0.43,VWS V14.01,2013-06-06 21:04:00,
2013-06-06 16:09:00,58.6,40.6,29.82,North,9,4.9,4.9,51,0.00,,OVC065,0.43,VWS V14.01,2013-06-06 21:09:00,
2013-06-06 16:14:00,58.5,39.9,29.82,North,357,3.1,6.3,50,0.00,,OVC065,0.43,VWS V14.01,2013-06-06 21:14:00,
2013-06-06 16:20:00,58.3,40.2,29.82,NNE,16,7.6,8.3,51,0.00,,OVC065,0.43,VWS V14.01,2013-06-06 21:20:00,
2013-06-06 16:26:00,58.1,39.6,29.82,NE,43,5.8,6.3,50,0.00,,OVC065,0.43,VWS V14.01,2013-06-06 21:26:00,
2013-06-06 16:32:00,57.9,39.9,29.82,NNE,16,6.3,6.3,51,0.00,,OVC065,0.43,VWS V14.01,2013-06-06 21:32:00,
2013-06-06 16:37:00,57.9,40.9,29.82,NNE,12,8.1,8.1,53,0.00,,OVC065,0.43,VWS V14.01,2013-06-06 21:37:00,
2013-06-06 16:42:00,57.7,40.7,29.82,NNE,14,4.0,8.3,53,0.00,,OVC065,0.43,VWS V14.01,2013-06-06 21:42:00,
2013-06-06 16:48:00,57.6,41.1,29.82,NNW,348,3.6,3.6,54,0.00,,OVC065,0.43,VWS V14.01,2013-06-06 21:48:00,
2013-06-06 16:54:00,57.4,40.9,29.82,NNE,22,3.6,8.1,54,0.00,,OVC065,0.43,VWS V14.01,2013-06-06 21:54:00,
2013-06-06 16:59:00,57.4,41.4,29.82,NNE,21,0.0,4.0,55,0.00,,OVC065,0.43,VWS V14.01,2013-06-06 21:59:00,
2013-06-06 17:04:00,57.4,41.4,29.85,North,2,6.3,6.3,55,0.00,,OVC060,0.43,VWS V14.01,2013-06-06 22:04:00,
2013-06-06 17:10:00,57.2,41.2,29.85,North,6,8.3,8.3,55,0.00,,OVC060,0.43,VWS V14.01,2013-06-06 22:10:00,
2013-06-06 17:15:00,57.2,41.2,29.82,North,4,5.4,5.4,55,0.00,,OVC060,0.43,VWS V14.01,2013-06-06 22:15:00,
2013-06-06 17:22:00,57.2,41.2,29.82,North,7,2.2,4.9,55,0.00,,OVC060,0.43,VWS V14.01,2013-06-06 22:22:00,
2013-06-06 17:28:00,57.0,41.5,29.82,NNE,28,7.6,7.6,56,0.00,,OVC060,0.43,VWS V14.01,2013-06-06 22:28:00,
2013-06-06 17:33:00,56.8,41.3,29.82,NNE,20,8.7,8.7,56,0.00,,OVC060,0.43,VWS V14.01,2013-06-06 22:33:00,
2013-06-06 17:39:00,56.7,40.7,29.82,NNE,28,6.3,6.3,55,0.00,,OVC060,0.43,VWS V14.01,2013-06-06 22:39:00,
2013-06-06 17:44:00,56.7,40.7,29.82,North,3,6.3,8.1,55,0.00,,OVC060,0.43,VWS V14.01,2013-06-06 22:44:00,
2013-06-06 17:49:00,56.5,40.5,29.82,North,357,4.0,4.0,55,0.00,,OVC060,0.43,VWS V14.01,2013-06-06 22:49:00,
2013-06-06 17:55:00,56.3,40.8,29.82,North,8,4.0,6.3,56,0.00,,OVC060,0.43,VWS V14.01,2013-06-06 22:55:00,
2013-06-06 18:00:00,56.3,40.8,29.82,NE,54,5.4,6.3,56,0.00,,OVC060,0.43,VWS V14.01,2013-06-06 23:00:00,
2013-06-06 18:07:00,55.9,40.5,29.82,NNE,18,4.9,5.8,56,0.00,,OVC055,0.43,VWS V14.01,2013-06-06 23:07:00,
2013-06-06 18:12:00,55.9,40.5,29.82,North,6,5.8,7.6,56,0.00,,OVC055,0.43,VWS V14.01,2013-06-06 23:12:00,
2013-06-06 18:17:00,55.8,39.8,29.82,NNE,27,5.4,7.6,55,0.00,,OVC055,0.43,VWS V14.01,2013-06-06 23:17:00,
2013-06-06 18:23:00,55.6,39.2,29.82,North,9,5.8,5.8,54,0.00,,OVC055,0.43,VWS V14.01,2013-06-06 23:23:00,
2013-06-06 18:28:00,55.6,39.2,29.82,North,10,3.6,5.8,54,0.00,,OVC055,0.43,VWS V14.01,2013-06-06 23:28:00,
2013-06-06 18:34:00,55.4,38.6,29.82,North,3,5.8,8.7,53,0.00,,OVC055,0.43,VWS V14.01,2013-06-06 23:34:00,
2013-06-06 18:40:00,55.2,37.9,29.82,NNE,18,2.7,5.8,52,0.00,,OVC055,0.43,VWS V14.01,2013-06-06 23:40:00,
2013-06-06 18:45:00,55.0,36.8,29.85,NNE,17,5.4,5.4,50,0.00,,OVC055,0.43,VWS V14.01,2013-06-06 23:45:00,
2013-06-06 18:51:00,55.0,36.2,29.85,North,8,6.3,6.3,49,0.00,,OVC055,0.43,VWS V14.01,2013-06-06 23:51:00,
2013-06-06 18:57:00,54.9,35.0,29.85,North,10,5.4,6.3,47,0.00,,OVC055,0.43,VWS V14.01,2013-06-06 23:57:00,
2013-06-06 19:02:00,54.9,34.5,29.82,North,357,5.4,8.3,46,0.00,,OVC055,0.43,VWS V14.01,2013-06-07 00:02:00,
2013-06-06 19:08:00,54.9,34.5,29.82,NNE,18,3.6,8.3,46,0.00,,OVC055,0.43,VWS V14.01,2013-06-07 00:08:00,
2013-06-06 19:14:00,54.9,34.5,29.82,NE,43,2.7,5.4,46,0.00,,OVC055,0.43,VWS V14.01,2013-06-07 00:14:00,
2013-06-06 19:19:00,54.9,34.5,29.82,NNE,13,0.0,0.0,46,0.00,,OVC055,0.43,VWS V14.01,2013-06-07 00:19:00,
2013-06-06 19:24:00,54.9,34.5,29.82,North,7,5.4,5.4,46,0.00,,OVC055,0.43,VWS V14.01,2013-06-07 00:24:00,
2013-06-06 19:29:00,54.9,35.0,29.82,NNE,12,3.6,3.6,47,0.00,,OVC055,0.43,VWS V14.01,2013-06-07 00:29:00,
2013-06-06 19:34:00,54.9,35.0,29.82,NNE,21,6.3,6.3,47,0.00,,OVC055,0.43,VWS V14.01,2013-06-07 00:34:00,
2013-06-06 19:40:00,54.9,35.0,29.82,North,1,3.1,4.0,47,0.00,,OVC055,0.43,VWS V14.01,2013-06-07 00:40:00,
2013-06-06 19:45:00,54.9,35.0,29.82,North,3,2.7,2.7,47,0.00,,OVC055,0.43,VWS V14.01,2013-06-07 00:45:00,
2013-06-06 19:50:00,54.9,35.6,29.82,NNE,16,0.0,3.6,48,0.00,,OVC055,0.43,VWS V14.01,2013-06-07 00:50:00,
2013-06-06 19:55:00,54.9,35.6,29.82,North,11,0.0,0.0,48,0.00,,OVC055,0.43,VWS V14.01,2013-06-07 00:55:00,
2013-06-06 20:00:00,54.9,35.6,29.85,North,4,0.0,0.0,48,0.00,,OVC055,0.43,VWS V14.01,2013-06-07 01:00:00,
2013-06-06 20:07:00,54.9,35.6,29.85,North,4,0.0,0.0,48,0.00,,OVC060,0.43,VWS V14.01,2013-06-07 01:07:00,
2013-06-06 20:12:00,54.9,35.6,29.85,North,4,0.0,0.0,48,0.00,,OVC060,0.43,VWS V14.01,2013-06-07 01:12:00,
2013-06-06 20:18:00,54.9,35.6,29.85,North,4,0.0,0.0,48,0.00,,OVC060,0.43,VWS V14.01,2013-06-07 01:18:00,
2013-06-06 20:24:00,54.9,36.1,29.85,North,4,0.0,0.0,49,0.00,,OVC060,0.43,VWS V14.01,2013-06-07 01:24:00,
2013-06-06 20:30:00,54.9,36.1,29.85,North,357,2.7,2.7,49,0.00,,OVC060,0.43,VWS V14.01,2013-06-07 01:30:00,
2013-06-06 20:35:00,54.7,35.9,29.85,NNE,18,7.6,7.6,49,0.00,,OVC060,0.43,VWS V14.01,2013-06-07 01:35:00,
2013-06-06 20:40:00,54.7,35.9,29.85,North,357,4.9,5.8,49,0.00,,OVC060,0.43,VWS V14.01,2013-06-07 01:40:00,
2013-06-06 20:45:00,54.7,35.9,29.82,NNE,27,4.0,5.4,49,0.00,,OVC060,0.43,VWS V14.01,2013-06-07 01:45:00,
2013-06-06 20:50:00,54.7,35.9,29.82,North,10,3.1,6.3,49,0.00,,OVC060,0.43,VWS V14.01,2013-06-07 01:50:00,
2013-06-06 20:55:00,54.7,35.9,29.82,NNE,32,3.1,6.3,49,0.00,,OVC060,0.43,VWS V14.01,2013-06-07 01:55:00,
2013-06-06 21:01:00,54.5,35.8,29.82,North,3,0.0,0.0,49,0.00,,OVC060,0.43,VWS V14.01,2013-06-07 02:01:00,
2013-06-06 21:06:00,54.5,35.8,29.82,North,7,4.0,4.5,49,0.00,,OVC060,0.43,VWS V14.01,2013-06-07 02:06:00,
2013-06-06 21:12:00,54.5,35.8,29.82,NNE,18,0.0,0.0,49,0.00,,OVC060,0.43,VWS V14.01,2013-06-07 02:12:00,
2013-06-06 21:17:00,54.3,36.1,29.82,NNE,17,0.0,0.0,50,0.00,,OVC060,0.43,VWS V14.01,2013-06-07 02:17:00,
2013-06-06 21:22:00,54.3,36.1,29.82,NNE,17,0.0,0.0,50,0.00,,OVC060,0.43,VWS V14.01,2013-06-07 02:22:00,
2013-06-06 21:28:00,54.0,35.8,29.82,NNE,17,0.0,0.0,50,0.00,,OVC060,0.43,VWS V14.01,2013-06-07 02:28:00,
2013-06-06 21:33:00,54.0,35.8,29.85,NNE,17,0.0,0.0,50,0.00,,OVC060,0.43,VWS V14.01,2013-06-07 02:33:00,
2013-06-06 21:39:00,53.8,36.1,29.85,NNE,17,0.0,0.0,51,0.00,,OVC060,0.43,VWS V14.01,2013-06-07 02:39:00,
2013-06-06 21:44:00,53.6,35.9,29.85,North,10,0.0,0.0,51,0.00,,OVC060,0.43,VWS V14.01,2013-06-07 02:44:00,
2013-06-06 21:50:00,53.4,36.2,29.85,North,9,0.0,0.0,52,0.00,,OVC060,0.43,VWS V14.01,2013-06-07 02:50:00,
2013-06-06 21:55:00,53.4,36.7,29.85,North,10,0.0,0.0,53,0.00,,OVC060,0.43,VWS V14.01,2013-06-07 02:55:00,
2013-06-06 22:01:00,53.2,37.0,29.85,North,10,0.0,0.0,54,0.00,,BKN110,0.43,VWS V14.01,2013-06-07 03:01:00,
2013-06-06 22:07:00,53.2,37.5,29.85,North,10,0.0,0.0,55,0.00,,BKN110,0.43,VWS V14.01,2013-06-07 03:07:00,
2013-06-06 22:12:00,53.2,38.4,29.85,North,10,0.0,0.0,57,0.00,,BKN110,0.43,VWS V14.01,2013-06-07 03:12:00,
2013-06-06 22:18:00,53.4,41.6,29.85,North,10,0.0,0.0,64,0.00,,BKN110,0.43,VWS V14.01,2013-06-07 03:18:00,
2013-06-06 22:24:00,53.4,42.0,29.85,North,10,0.0,0.0,65,0.00,,BKN110,0.43,VWS V14.01,2013-06-07 03:24:00,
2013-06-06 22:29:00,53.2,41.4,29.85,North,10,0.0,0.0,64,0.00,,BKN110,0.43,VWS V14.01,2013-06-07 03:29:00,
2013-06-06 22:34:00,53.2,41.4,29.85,North,10,0.0,0.0,64,0.00,,BKN110,0.43,VWS V14.01,2013-06-07 03:34:00,
2013-06-06 22:39:00,53.1,41.2,29.85,North,10,0.0,0.0,64,0.00,,BKN110,0.43,VWS V14.01,2013-06-07 03:39:00,
2013-06-06 22:44:00,53.1,41.2,29.85,North,10,0.0,0.0,64,0.00,,BKN110,0.43,VWS V14.01,2013-06-07 03:44:00,
2013-06-06 22:50:00,53.1,41.2,29.85,North,10,0.0,0.0,64,0.00,,BKN110,0.43,VWS V14.01,2013-06-07 03:50:00,
2013-06-06 22:55:00,52.9,41.5,29.85,North,10,0.0,0.0,65,0.00,,BKN110,0.43,VWS V14.01,2013-06-07 03:55:00,
2013-06-06 23:00:00,52.9,41.5,29.85,North,10,0.0,0.0,65,0.00,,BKN110,0.43,VWS V14.01,2013-06-07 04:00:00,
2013-06-06 23:01:00,52.9,41.5,29.85,North,10,0.0,0.0,65,0.00,,OVC100,0.43,VWS V14.01,2013-06-07 04:01:00,
2013-06-06 23:02:00,52.9,41.5,29.85,North,10,0.0,0.0,65,0.00,,OVC100,0.43,VWS V14.01,2013-06-07 04:02:00,
2013-06-06 23:05:00,52.9,41.8,29.85,North,10,0.0,0.0,66,0.00,,OVC100,0.43,VWS V14.01,2013-06-07 04:05:00,
2013-06-06 23:07:00,52.9,41.8,29.85,North,10,0.0,0.0,66,0.00,,OVC100,0.43,VWS V14.01,2013-06-07 04:07:00,
2013-06-06 23:13:00,52.9,41.8,29.85,North,10,0.0,0.0,66,0.00,,OVC100,0.43,VWS V14.01,2013-06-07 04:13:00,
2013-06-06 23:15:00,52.9,41.5,29.85,North,10,0.0,0.0,65,0.00,,OVC100,0.43,VWS V14.01,2013-06-07 04:15:00,
2013-06-06 23:21:00,52.7,41.7,29.85,NNE,14,0.0,0.0,66,0.00,,OVC100,0.43,VWS V14.01,2013-06-07 04:21:00,
2013-06-06 23:26:00,52.7,41.7,29.85,North,5,5.4,5.4,66,0.00,,OVC100,0.43,VWS V14.01,2013-06-07 04:26:00,
2013-06-06 23:32:00,52.7,41.3,29.85,North,353,3.6,4.0,65,0.00,,OVC100,0.43,VWS V14.01,2013-06-07 04:32:00,
2013-06-06 23:38:00,52.7,41.3,29.85,North,0,3.1,3.6,65,0.00,,OVC100,0.43,VWS V14.01,2013-06-07 04:38:00,
2013-06-06 23:43:00,52.5,40.7,29.85,North,2,3.6,4.9,64,0.00,,OVC100,0.43,VWS V14.01,2013-06-07 04:43:00,
2013-06-06 23:49:00,52.3,40.1,29.85,North,11,4.0,4.9,63,0.00,,OVC100,0.43,VWS V14.01,2013-06-07 04:49:00,
2013-06-06 23:55:00,52.3,40.1,29.85,North,11,3.6,3.6,63,0.00,,OVC100,0.43,VWS V14.01,2013-06-07 04:55:00,